BIENTÔT MET'MAP
version 2.0 !

Prévue avant fin octobre,
la nouvelle version sera
plus belle, plus complète
et hébergée sur un serveur
3 fois plus puissant...
et toujours gratuite !


Pas compatible ?
Essayez la version Mobile !

SE CONNECTER : | S'inscrire | Disclaimer | Découvrir Orbifly |
Code OACI :

TAF - LIBF Foggia / Gino Lisa Airport - 23 Feb 2020 22:00 UTC - Data Source NOAA   


- Altitude de l'aérodrome : 265 ft
- Code IATA : FOG
- Pas de NOTAMs connus.


LIBF - Foggia / Gino Lisa Airport

Dernier METAR connu : 2015/08/11 07:50 LIBF 110750Z 33010KT 9999 FEW035 25/21 Q1012
Prévision TAF périmée.

Source NOAA


MET'MAP, la Météo Aéronautique d'un coup d'oeil ! - Copyright ORBIFLY Décembre 2007

Développement & Programmation : Alexandra Zaïnal
Co-Développement : Marc-Olivier Méhu
Soutien technique & logistique : Manuel Goepfert
Conception & Financement : Baudouin d'Aumeries